Aviation Digital Data Service (ADDS)

Output produced by METARs form (0958 UTC 19 January 2019)
found at http://www.aviationweather.gov/metar/data/
 
KBED 190856Z AUTO 32004KT 10SM CLR M03/M10 A3017 RMK AO2 SLP233 T10331100 53017
KBED 190538Z 1906/2006 33005KT P6SM FEW250 
     FM191600 36006KT P6SM BKN045 
     FM192100 07005KT P6SM OVC025 
     FM200000 07007KT P6SM -SN OVC010 
     FM200200 06006KT 1/2SM SN OVC008
       
KBVY 190953Z AUTO 35008KT 10SM CLR M03/M09 A3020 RMK AO2 SLP225 T10281094
KBOS 190954Z 33005KT 10SM CLR 00/M09 A3020 RMK AO2 SLP227 T00001094
KBOS 190924Z 1909/2012 33007KT P6SM FEW250 
     FM191200 34008KT P6SM BKN250 
     FM191700 02008KT P6SM BKN035 
     FM200000 07010KT P6SM -SN OVC020 
     FM200200 08015G22KT 1/2SM SN OVC010 
     FM200800 08021G32KT 3/4SM +PL OVC015
       
KCQX 190952Z AUTO 00000KT 10SM OVC035 00/M03 A3019 RMK AO2 SLP224 T00001028
KCEF 190856Z AUTO 31004KT 10SM OVC039 M02/M07 A3018 RMK AO2 SLP229 T10221073 52022 $
TAF KCEF 190300Z 1903/2009 VRB06KT 9999 SCT025 SCT200 QNH3009INS 
     BECMG 1911/1912 VRB06KT 9999 SCT030 OVC100 QNH3019INS 
     BECMG 1920/1921 09006KT 9999 BKN030 620302 QNH3015INS 
     BECMG 2000/2001 08012KT 1600 -SN OVC025 620259 QNH3007INS 
     BECMG 2003/2004 08012KT 0800 SN OVC015 650159 QNH2980INS 
     TEMPO 2004/2009 09012G20KT 0400 +SN VV004 650049 TX01/1904Z TNM08/1912Z
LAST NO AMDS AFT 1904 NEXT 1911
       
KFIT 190952Z AUTO 00000KT 10SM SCT043 M08/M11 A3019 RMK AO2 SLP229 T10831106
KHYA 190856Z AUTO 29003KT 10SM OVC034 00/M04 A3016 RMK AO2 SLP214 T00001039 53017
KHYA 190538Z 1906/2006 32009KT 6SM BR BKN250 
     FM191000 35011KT P6SM SCT250 
     FM191900 05009KT P6SM VCSH OVC025 
     FM200000 08012KT P6SM VCSH OVC010 
     FM200300 09013G23KT 1SM -SN OVC008
       
KLWM 190954Z AUTO 35006KT 10SM CLR M03/M09 A3022 RMK AO2 SLP236 T10331089
KGHG 190935Z AUTO 30004KT 10SM CLR M03/M07 A3019 RMK AO2
KACK 190953Z AUTO 33010KT 10SM BKN033 OVC046 01/M03 A3018 RMK AO2 SLP219 T00111028
KACK 190538Z 1906/2006 31006KT P6SM SCT250 
     FM191500 02012G20KT P6SM BKN035 
     FM192100 07012KT P6SM VCSH OVC020 
     FM200100 09014G22KT P6SM VCSH OVC010 
     FM200300 09018G25KT 1 1/2SM -SN OVC008
       
KEWB 190953Z AUTO 00000KT 10SM CLR M06/M06 A3019 RMK AO2 SLP222 T10611061
KAQW 190952Z AUTO 29004KT 10SM FEW020 OVC044 M04/M07 A3019 RMK AO2 SLP232 T10441067
KOWD 190953Z AUTO 00000KT 10SM CLR M07/M09 A3020 RMK AO2 SLP227 I1000 T10671089
KORE 190952Z AUTO 00000KT 10SM CLR M09/M11 A3018 RMK AO2 SLP229 T10891106
KPSF 190954Z AUTO 30006KT 10SM OVC037 M04/M09 A3014 RMK AO2 SLP218 T10391094
KPSF 190929Z 1909/2006 31008KT P6SM BKN035 
     FM191000 31005KT P6SM BKN040 
     FM192200 09007KT 2SM -SN OVC040 
     FM200000 09009KT 1/2SM SN OVC020 
     FM200400 09009KT 1/2SM SN OVC007
       
KPYM 190952Z AUTO 34003KT 10SM CLR M06/M08 A3019 RMK AO2 SLP225 I1000 T10561078
KPVC 190956Z AUTO 36010KT 10SM OVC036 02/M05 A3019 RMK AO2 SLP224 T00171050 FZRANO
KBAF 190953Z AUTO 30005KT 10SM BKN040 M02/M07 A3019 RMK AO2 SLP229 T10171072
KBAF 190538Z 1906/2006 33005KT P6SM SCT045 
     FM191800 03004KT P6SM BKN090 
     FM192300 06005KT 4SM -SN OVC035 
     FM200100 06006KT 2SM -SN OVC020 
     FM200300 04008KT 1/2SM SN OVC010
       
KORH 190954Z AUTO 29006KT 10SM CLR M05/M09 A3014 RMK AO2 SLP222 T10501089
KORH 190538Z 1906/2006 31006KT P6SM SCT045 
     FM191300 01005KT P6SM BKN120 
     FM192300 08007KT 4SM -SN OVC020 
     FM200000 07008KT 2SM -SN OVC015 
     FM200500 07009KT 1/2SM SN OVC008